Time;durP1;ratioP1;P1;durP2;ratioP2;P2;SDS_P1;SDS_P2;PMS_P1;PMS_P2;Temp;Humidity;BMP_temperature;BMP_pressure;BME280_temperature;BME280_humidity;BME280_pressure;Samples;Min_cycle;Max_cycle;Signal;HPM_P1;HPM_P2
2022/12/13 00:01:14;;;;;;;1.50;1.40;;;;;;;-143.84;95.30;44167.56;5111049;28;20901;-70
2022/12/13 00:03:41;;;;;;;1.40;1.30;;;;;;;-143.84;94.95;44112.34;5110979;28;21021;-70
2022/12/13 00:06:10;;;;;;;2.00;1.50;;;;;;;-143.84;95.42;44091.41;5110964;28;20508;-70
2022/12/13 00:08:38;;;;;;;1.30;1.20;;;;;;;-143.84;95.64;44102.84;5111184;28;20938;-70
2022/12/13 00:11:07;;;;;;;1.60;1.50;;;;;;;-143.84;95.47;44118.06;5111163;28;20495;-70
2022/12/13 00:13:35;;;;;;;1.20;1.10;;;;;;;-143.84;95.07;44100.94;5110744;28;20500;-70
2022/12/13 00:16:04;;;;;;;1.80;1.70;;;;;;;-143.84;95.39;44154.22;5110733;28;20482;-70
2022/12/13 00:18:34;;;;;;;1.40;1.30;;;;;;;-143.84;95.29;44104.72;5110827;28;20856;-70
2022/12/13 00:21:04;;;;;;;1.60;1.50;;;;;;;-143.84;95.65;44043.81;5110648;28;20453;-70
2022/12/13 00:23:32;;;;;;;1.73;1.63;;;;;;;-143.84;95.40;44068.56;5110874;28;20835;-70
2022/12/13 00:26:03;;;;;;;1.60;1.50;;;;;;;-143.84;95.63;44100.94;5110905;28;21153;-70
2022/12/13 00:28:30;;;;;;;1.90;1.80;;;;;;;-143.84;94.97;44057.16;5110631;28;20468;-70
2022/12/13 00:30:58;;;;;;;3.27;2.80;;;;;;;-143.84;95.34;44081.88;5109750;28;20503;-70
2022/12/13 00:33:26;;;;;;;1.90;1.60;;;;;;;-143.84;94.74;44106.63;5110207;28;21029;-70
2022/12/13 00:35:54;;;;;;;1.97;1.87;;;;;;;-143.84;95.09;44211.34;5110291;28;20811;-70
2022/12/13 00:38:22;;;;;;;2.20;2.10;;;;;;;-143.84;94.65;44218.94;5110315;28;20496;-70
2022/12/13 00:40:50;;;;;;;2.47;1.80;;;;;;;-143.84;94.50;44228.47;5110526;28;20445;-70
2022/12/13 00:43:17;;;;;;;2.50;2.30;;;;;;;-143.84;94.23;44264.66;5110145;28;20886;-70
2022/12/13 00:45:44;;;;;;;1.90;1.80;;;;;;;-143.84;94.38;44258.94;5109136;28;20471;-70
2022/12/13 00:48:11;;;;;;;1.87;1.77;;;;;;;-143.84;94.82;44241.81;5110019;28;21025;-70
2022/12/13 00:50:39;;;;;;;2.13;2.03;;;;;;;-143.84;94.53;44213.25;5110062;28;20488;-70
2022/12/13 00:53:07;;;;;;;2.03;1.93;;;;;;;-143.84;94.72;44279.88;5110060;28;20492;-70
2022/12/13 00:55:34;;;;;;;2.60;2.30;;;;;;;-143.84;94.45;44238.00;5110071;28;20548;-70
2022/12/13 00:58:01;;;;;;;2.03;1.93;;;;;;;-143.84;94.95;44211.34;5110109;28;20489;-70
2022/12/13 01:00:28;;;;;;;2.27;2.03;;;;;;;-143.84;95.01;44188.50;5110064;28;20447;-70
2022/12/13 01:02:56;;;;;;;2.10;2.00;;;;;;;-143.84;95.05;44165.66;5110004;28;20853;-70
2022/12/13 01:05:23;;;;;;;5.20;3.70;;;;;;;-143.84;95.18;44131.38;5110135;28;20443;-70
2022/12/13 01:07:50;;;;;;;2.33;2.23;;;;;;;-143.84;95.28;44142.81;5109235;28;20447;-70
2022/12/13 01:10:18;;;;;;;2.20;2.00;;;;;;;-143.84;95.18;44108.53;5109678;28;20496;-70
2022/12/13 01:12:46;;;;;;;2.00;1.90;;;;;;;-143.84;95.30;44135.19;5110064;28;20443;-70
2022/12/13 01:15:13;;;;;;;2.33;2.23;;;;;;;-143.84;95.64;44066.66;5109513;28;20537;-70
2022/12/13 01:17:40;;;;;;;2.07;1.97;;;;;;;-143.84;95.45;44072.38;5109972;28;20441;-70
2022/12/13 01:20:09;;;;;;;2.50;2.40;;;;;;;-143.84;95.56;44074.28;5109506;28;20443;-70
2022/12/13 01:22:36;;;;;;;2.20;2.10;;;;;;;-143.84;95.23;44062.84;5109596;28;20449;-70
2022/12/13 01:25:03;;;;;;;2.50;2.33;;;;;;;-143.84;96.12;44026.69;5109561;28;20437;-70
2022/12/13 01:27:32;;;;;;;2.43;2.23;;;;;;;-143.84;95.84;44019.06;5109616;28;20467;-70
2022/12/13 01:29:59;;;;;;;2.30;2.20;;;;;;;-143.84;95.25;44047.63;5109564;28;20439;-70
2022/12/13 01:32:26;;;;;;;2.10;2.00;;;;;;;-143.84;95.46;44089.50;5109472;28;21001;-70
2022/12/13 01:34:53;;;;;;;2.03;1.83;;;;;;;-143.84;95.47;44119.97;5109516;28;20867;-70
2022/12/13 01:37:20;;;;;;;2.20;2.10;;;;;;;-143.84;95.06;44142.81;5109583;28;20442;-70
2022/12/13 01:39:47;;;;;;;1.97;1.87;;;;;;;-143.84;94.98;44118.06;5109182;28;20496;-70
2022/12/13 01:42:15;;;;;;;3.00;2.77;;;;;;;-143.84;95.05;44080.00;5109333;28;20445;-70
2022/12/13 01:45:03;;;;;;;2.20;2.10;;;;;;;-143.84;94.76;44112.34;5108893;28;20474;-70
2022/12/13 01:47:36;;;;;;;2.27;2.17;;;;;;;-143.84;95.05;44144.72;5109304;28;20510;-70
2022/12/13 01:50:06;;;;;;;2.70;2.50;;;;;;;-143.84;94.77;44108.53;5109205;28;20451;-70
2022/12/13 01:52:34;;;;;;;2.30;2.20;;;;;;;-143.84;95.31;44100.94;5109040;28;20439;-70
2022/12/13 01:55:05;;;;;;;2.03;1.93;;;;;;;-143.84;95.19;44135.19;5109059;28;20489;-70
2022/12/13 01:57:34;;;;;;;2.70;2.50;;;;;;;-143.84;95.13;44083.78;5109026;28;20431;-70
2022/12/13 02:00:04;;;;;;;2.90;2.70;;;;;;;-143.84;95.18;44137.09;5109222;28;20450;-70
2022/12/13 02:02:31;;;;;;;3.27;3.07;;;;;;;-143.84;95.02;44139.00;5109137;28;20470;-70
2022/12/13 02:05:07;;;;;;;2.90;2.70;;;;;;;-143.84;94.39;44222.75;5108996;28;20435;-70
2022/12/13 02:07:37;;;;;;;3.60;3.30;;;;;;;-143.84;94.56;44268.44;5109262;28;20499;-70
2022/12/13 02:10:06;;;;;;;3.60;3.40;;;;;;;-143.84;94.48;44289.41;5109023;28;20438;-70
2022/12/13 02:12:35;;;;;;;4.17;3.87;;;;;;;-143.84;94.09;44302.72;5108918;28;20447;-70
2022/12/13 02:15:06;;;;;;;3.80;3.50;;;;;;;-143.84;94.04;44333.19;5108855;28;20446;-70
2022/12/13 02:17:55;;;;;;;3.20;3.00;;;;;;;-143.84;94.21;44325.56;5108907;28;20455;-70
2022/12/13 02:20:46;;;;;;;3.70;3.40;;;;;;;-143.84;94.41;44304.63;5112088;28;21168;-70
2022/12/13 02:23:47;;;;;;;3.10;2.90;;;;;;;-143.84;94.28;44276.06;5113261;28;20820;-70
2022/12/13 02:26:30;;;;;;;3.87;3.60;;;;;;;-143.84;94.74;44230.38;5079787;28;21131;-70
2022/12/13 02:29:17;;;;;;;4.07;3.77;;;;;;;-143.84;94.81;44217.06;5112905;28;20962;-70
2022/12/13 02:31:52;;;;;;;3.93;3.63;;;;;;;-143.84;94.50;44215.16;5112916;28;20441;-70
2022/12/13 02:34:24;;;;;;;4.20;3.90;;;;;;;-143.84;94.45;44224.66;5113075;28;20772;-70
2022/12/13 02:37:01;;;;;;;4.90;4.50;;;;;;;-143.84;94.47;44277.97;5112774;28;21058;-70
2022/12/13 02:39:32;;;;;;;4.00;3.70;;;;;;;-143.84;94.33;44338.88;5112795;28;20428;-70
2022/12/13 02:42:05;;;;;;;5.50;5.10;;;;;;;-143.84;94.62;44253.22;5112598;28;20441;-70
2022/12/13 02:44:37;;;;;;;4.70;4.40;;;;;;;-143.84;94.39;44289.41;5101120;28;20824;-70
2022/12/13 02:47:10;;;;;;;4.13;3.93;;;;;;;-143.84;94.02;44277.97;5072070;28;20448;-70
2022/12/13 02:49:40;;;;;;;4.07;3.77;;;;;;;-143.84;94.64;44279.88;5071852;28;20851;-70
2022/12/13 02:52:10;;;;;;;4.53;4.23;;;;;;;-143.84;94.20;44306.53;5071592;28;20441;-70
2022/12/13 02:54:37;;;;;;;9.57;4.20;;;;;;;-143.84;94.46;44297.00;5071776;28;20969;-70
2022/12/13 02:57:05;;;;;;;5.20;4.80;;;;;;;-143.84;94.08;44306.53;5071565;28;20547;-70
2022/12/13 02:59:36;;;;;;;4.07;3.77;;;;;;;-143.84;94.19;44397.91;5071618;28;20505;-70
2022/12/13 03:02:17;;;;;;;3.63;3.40;;;;;;;-143.84;93.73;44445.50;5071702;28;20495;-70
2022/12/13 03:08:00;;;;;;;3.27;3.07;;;;;;;-143.84;93.26;44578.78;5071803;28;20427;-70
2022/12/13 03:10:33;;;;;;;3.10;2.90;;;;;;;-143.84;93.08;44649.22;5071722;28;20506;-70
2022/12/13 03:15:53;;;;;;;4.10;3.83;;;;;;;-143.84;93.12;44706.34;5071575;28;20464;-70
2022/12/13 03:18:24;;;;;;;3.60;3.40;;;;;;;-143.84;92.54;44750.13;5071211;28;20441;-71
2022/12/13 03:20:54;;;;;;;3.47;3.27;;;;;;;-143.84;92.93;44748.22;5071365;28;20518;-71
2022/12/13 03:23:21;;;;;;;3.00;2.80;;;;;;;-143.84;92.16;44814.88;5071219;28;20435;-71
2022/12/13 03:25:52;;;;;;;3.00;2.80;;;;;;;-143.84;91.48;44911.97;5071123;28;20505;-71
2022/12/13 03:28:19;;;;;;;2.73;2.53;;;;;;;-143.84;91.43;45007.19;5071284;28;20449;-71
2022/12/13 03:30:47;;;;;;;2.70;2.60;;;;;;;-143.84;90.42;45066.22;5076973;28;20449;-71
2022/12/13 03:33:14;;;;;;;2.70;2.60;;;;;;;-143.84;89.64;45079.53;5091834;28;20499;-71
2022/12/13 03:35:44;;;;;;;2.67;2.57;;;;;;;-143.84;88.89;45170.94;5091672;28;20479;-71
2022/12/13 03:38:12;;;;;;;1.90;1.80;;;;;;;-143.84;88.16;45165.22;5091342;28;20467;-71
2022/12/13 03:40:39;;;;;;;2.33;2.20;;;;;;;-143.84;86.54;45210.94;5090837;28;20436;-70
2022/12/13 03:43:06;;;;;;;1.87;1.77;;;;;;;-143.84;86.52;45214.72;5090798;28;20453;-71
2022/12/13 03:45:33;;;;;;;2.40;2.20;;;;;;;-143.84;85.99;45222.34;5104891;28;21004;-70
2022/12/13 03:48:00;;;;;;;5.60;5.10;;;;;;;-143.84;85.94;45209.03;5111056;28;20438;-71
2022/12/13 03:50:27;;;;;;;2.33;2.13;;;;;;;-143.84;86.07;45254.72;5111084;28;20775;-71
2022/12/13 03:53:00;;;;;;;2.00;1.90;;;;;;;-143.84;84.97;45220.44;5111300;28;20435;-71
2022/12/13 03:55:27;;;;;;;2.50;2.40;;;;;;;-143.84;85.70;45199.50;5111378;28;20526;-71
2022/12/13 03:57:55;;;;;;;2.53;2.40;;;;;;;-143.84;85.13;45218.53;5111221;28;20940;-71
2022/12/13 04:00:22;;;;;;;3.37;3.17;;;;;;;-143.84;85.20;45222.34;5111322;28;20442;-71
2022/12/13 04:02:49;;;;;;;4.30;4.00;;;;;;;-143.84;85.60;45231.88;5111243;28;20506;-71
2022/12/13 04:05:16;;;;;;;3.63;3.40;;;;;;;-143.84;85.29;45239.50;5111612;28;20800;-71
2022/12/13 04:07:44;;;;;;;4.47;2.57;;;;;;;-143.84;85.65;45256.63;5110934;28;20528;-71
2022/12/13 04:10:12;;;;;;;2.80;2.60;;;;;;;-143.84;84.85;45228.06;5111086;28;20453;-71
2022/12/13 04:15:24;;;;;;;3.53;3.33;;;;;;;-143.84;84.36;45237.59;5110613;28;20474;-71
2022/12/13 04:17:51;;;;;;;4.10;3.80;;;;;;;-143.84;83.61;45264.25;5110798;28;20445;-71
2022/12/13 04:20:18;;;;;;;3.90;3.50;;;;;;;-143.84;82.62;45239.50;5111105;28;20434;-71
2022/12/13 04:22:45;;;;;;;4.63;4.23;;;;;;;-143.84;83.38;45247.09;5110532;28;20436;-71
2022/12/13 04:25:14;;;;;;;4.50;4.10;;;;;;;-143.84;83.09;45231.88;5110521;28;20448;-71
2022/12/13 04:27:41;;;;;;;5.43;4.93;;;;;;;-143.84;82.78;45273.78;5110685;28;21008;-71
2022/12/13 04:30:09;;;;;;;5.53;5.03;;;;;;;-143.84;82.18;45269.97;5110513;28;20439;-71
2022/12/13 04:32:36;;;;;;;5.57;4.67;;;;;;;-143.84;82.41;45256.63;5110576;28;20446;-71
2022/12/13 04:35:04;;;;;;;6.93;5.40;;;;;;;-143.84;83.29;45273.78;5110492;28;20500;-71
2022/12/13 04:37:31;;;;;;;5.93;5.33;;;;;;;-143.84;83.26;45266.16;5109848;28;20482;-71
2022/12/13 04:39:58;;;;;;;5.63;5.13;;;;;;;-143.84;83.38;45268.06;5110137;28;20432;-71
2022/12/13 04:42:27;;;;;;;5.00;4.60;;;;;;;-143.84;82.97;45258.53;5109643;28;20440;-71
2022/12/13 04:44:54;;;;;;;6.13;5.53;;;;;;;-143.84;83.03;45256.63;5098593;28;20492;-71
2022/12/13 04:47:21;;;;;;;6.83;5.40;;;;;;;-143.84;83.35;45252.81;5090039;28;20947;-72
2022/12/13 04:49:48;;;;;;;6.10;5.50;;;;;;;-143.84;82.52;45275.66;5089673;28;20443;-72
2022/12/13 04:52:15;;;;;;;10.13;6.50;;;;;;;-143.84;83.29;45264.25;5090176;28;20420;-71
2022/12/13 04:54:42;;;;;;;6.70;5.33;;;;;;;-143.84;83.86;45235.69;5090019;28;20429;-73
2022/12/13 04:57:11;;;;;;;6.23;5.60;;;;;;;-143.84;83.24;45269.97;5089591;28;20480;-72
2022/12/13 04:59:40;;;;;;;6.83;5.73;;;;;;;-143.84;83.12;45235.69;5088995;28;20461;-71
2022/12/13 05:02:08;;;;;;;6.97;5.60;;;;;;;-143.84;83.30;45289.00;5089678;28;20489;-71
2022/12/13 05:04:35;;;;;;;7.60;6.77;;;;;;;-143.84;83.13;45287.09;5102918;28;20480;-71
2022/12/13 05:07:03;;;;;;;11.13;6.43;;;;;;;-143.84;83.63;45252.81;5108862;28;20443;-72
2022/12/13 05:09:30;;;;;;;7.43;6.47;;;;;;;-143.84;83.60;45228.06;5109446;28;20427;-70
2022/12/13 05:11:57;;;;;;;7.93;6.63;;;;;;;-143.84;83.56;45239.50;5110004;28;20446;-71
2022/12/13 05:14:24;;;;;;;8.23;6.57;;;;;;;-143.84;84.23;45250.91;5109259;28;20516;-71
2022/12/13 05:16:53;;;;;;;8.70;6.57;;;;;;;-143.84;84.35;45247.09;5110118;28;20490;-70
2022/12/13 05:19:20;;;;;;;7.60;6.37;;;;;;;-143.84;84.41;45224.25;5109661;28;20439;-70
2022/12/13 05:21:48;;;;;;;7.70;6.37;;;;;;;-143.84;83.84;45266.16;5109314;28;20439;-71
2022/12/13 05:24:15;;;;;;;8.50;6.90;;;;;;;-143.84;84.08;45239.50;5110213;28;20545;-73
2022/12/13 05:26:43;;;;;;;9.83;7.23;;;;;;;-143.84;83.95;45250.91;5109632;28;20436;-74
2022/12/13 05:29:10;;;;;;;7.43;6.40;;;;;;;-143.84;83.65;45239.50;5109138;28;20933;-71
2022/12/13 05:31:37;;;;;;;7.10;5.70;;;;;;;-143.84;82.64;45262.34;5109579;28;20446;-72
2022/12/13 05:34:05;;;;;;;6.80;6.20;;;;;;;-143.84;81.19;45281.38;5109478;28;20436;-71
2022/12/13 05:36:33;;;;;;;8.50;6.57;;;;;;;-143.84;80.36;45285.19;5109122;28;20474;-76
2022/12/13 05:39:00;;;;;;;7.00;5.73;;;;;;;-143.84;79.13;45241.41;5123130;27;20446;-72
2022/12/13 05:41:32;;;;;;;9.33;5.90;;;;;;;-143.84;78.79;45273.78;5130092;27;20469;-72
2022/12/13 05:43:59;;;;;;;7.20;6.37;;;;;;;-143.84;78.47;45254.72;5129900;27;20439;-72
2022/12/13 05:46:26;;;;;;;8.07;6.30;;;;;;;-143.84;78.16;45277.56;5130126;27;20450;-72
2022/12/13 05:48:53;;;;;;;8.77;5.60;;;;;;;-143.84;78.26;45279.47;5129736;27;20449;-72
2022/12/13 05:51:22;;;;;;;9.23;6.60;;;;;;;-143.84;78.65;45273.78;5129517;27;20438;-72
2022/12/13 05:53:49;;;;;;;7.93;5.77;;;;;;;-143.84;78.09;45287.09;5129461;27;20956;-72
2022/12/13 05:56:16;;;;;;;7.33;5.83;;;;;;;-143.84;77.71;45287.09;5129647;27;20487;-72
2022/12/13 05:58:43;;;;;;;9.53;7.20;;;;;;;-143.84;78.84;45269.97;5129708;27;20979;-72
2022/12/13 06:01:12;;;;;;;7.77;6.43;;;;;;;-143.84;78.41;45271.88;5129953;28;20449;-72
2022/12/13 06:03:39;;;;;;;8.73;6.90;;;;;;;-143.84;78.63;45279.47;5129188;27;20529;-72
2022/12/13 06:06:08;;;;;;;8.67;6.17;;;;;;;-143.84;77.05;45279.47;5129456;28;20430;-72
2022/12/13 06:08:37;;;;;;;8.40;6.07;;;;;;;-143.84;76.40;45292.81;5129446;27;20442;-72
2022/12/13 06:11:06;;;;;;;6.17;5.53;;;;;;;-143.84;76.32;45296.63;5129503;27;20514;-73
2022/12/13 06:13:33;;;;;;;9.90;5.90;;;;;;;-143.84;74.94;45281.38;5129822;28;20434;-72
2022/12/13 06:16:03;;;;;;;7.30;6.00;;;;;;;-143.84;74.48;45294.72;5129734;28;20954;-72
2022/12/13 06:18:31;;;;;;;7.73;6.40;;;;;;;-143.84;73.76;45292.81;5129687;28;20438;-72
2022/12/13 06:21:00;;;;;;;8.93;5.73;;;;;;;-143.84;73.70;45268.06;5129340;28;20495;-72
2022/12/13 06:23:27;;;;;;;10.07;6.40;;;;;;;-143.84;73.90;45289.00;5129534;28;20517;-72
2022/12/13 06:25:56;;;;;;;5.87;5.00;;;;;;;-143.84;73.86;45249.00;5129351;28;21206;-73
2022/12/13 06:28:23;;;;;;;8.77;6.60;;;;;;;-143.84;73.93;45298.53;5129140;28;20438;-72
2022/12/13 06:30:51;;;;;;;14.53;6.90;;;;;;;-143.84;74.64;45247.09;5129028;28;20441;-72
2022/12/13 06:33:19;;;;;;;8.80;6.80;;;;;;;-143.84;74.65;45281.38;5129199;28;20476;-72
2022/12/13 06:35:46;;;;;;;9.30;6.63;;;;;;;-143.84;74.14;45275.66;5129052;28;20473;-71
2022/12/13 06:38:14;;;;;;;10.33;6.60;;;;;;;-143.84;73.98;45268.06;5128551;28;20474;-71
2022/12/13 06:40:41;;;;;;;10.13;7.00;;;;;;;-143.84;73.98;45281.38;5129041;28;20442;-71
2022/12/13 06:43:09;;;;;;;10.33;6.90;;;;;;;-143.84;74.65;45296.63;5129274;28;20503;-71
2022/12/13 06:45:40;;;;;;;10.03;6.60;;;;;;;-143.84;74.33;45309.94;5128890;28;20481;-71
2022/12/13 06:48:07;;;;;;;15.90;8.10;;;;;;;-143.84;73.81;45277.56;5129041;28;20568;-71
2022/12/13 06:50:35;;;;;;;7.70;6.57;;;;;;;-143.84;74.26;45273.78;5129608;28;21054;-72
2022/12/13 06:53:02;;;;;;;10.53;7.80;;;;;;;-143.84;74.88;45281.38;5129243;28;20939;-72
2022/12/13 06:55:29;;;;;;;8.53;6.13;;;;;;;-143.84;75.00;45281.38;5129049;27;20450;-72
2022/12/13 06:57:57;;;;;;;10.37;7.33;;;;;;;-143.84;74.27;45289.00;5128975;28;20438;-72
2022/12/13 07:00:26;;;;;;;10.60;7.13;;;;;;;-143.84;73.70;45290.91;5128859;28;20826;-72
2022/12/13 07:02:54;;;;;;;9.50;7.07;;;;;;;-143.84;73.18;45258.53;5128979;28;20454;-72
2022/12/13 07:05:21;;;;;;;11.07;7.20;;;;;;;-143.84;73.36;45269.97;5129030;27;20541;-72
2022/12/13 07:07:49;;;;;;;9.60;7.00;;;;;;;-143.84;73.11;45250.91;5132371;27;20484;-72
2022/12/13 07:10:16;;;;;;;17.50;7.40;;;;;;;-143.84;73.07;45283.28;5133107;27;20438;-72
2022/12/13 07:12:43;;;;;;;9.53;7.67;;;;;;;-143.84;72.43;45275.66;5132711;27;20434;-72
2022/12/13 07:15:11;;;;;;;15.07;7.50;;;;;;;-143.84;71.05;45304.25;5132606;27;20857;-72
2022/12/13 07:17:41;;;;;;;9.37;6.30;;;;;;;-143.84;70.10;45289.00;5132487;27;20453;-72
2022/12/13 07:20:09;;;;;;;15.70;7.37;;;;;;;-143.84;69.82;45241.41;5132769;27;20484;-72
2022/12/13 07:22:37;;;;;;;8.10;5.83;;;;;;;-143.84;69.20;45264.25;5132697;27;20510;-72
2022/12/13 07:25:05;;;;;;;10.03;6.73;;;;;;;-143.84;69.02;45273.78;5129665;27;20450;-73
2022/12/13 07:27:33;;;;;;;9.93;6.67;;;;;;;-143.84;68.52;45266.16;5111787;28;20494;-73
2022/12/13 07:30:00;;;;;;;9.60;6.90;;;;;;;-143.84;68.78;45283.28;5111823;28;20474;-73
2022/12/13 07:32:28;;;;;;;15.50;7.40;;;;;;;-143.84;68.63;45277.56;5111351;28;20446;-73
2022/12/13 07:34:56;;;;;;;12.60;7.53;;;;;;;-143.84;68.35;45290.91;5111493;28;20447;-73
2022/12/13 07:37:23;;;;;;;8.00;6.60;;;;;;;-143.84;68.59;45313.75;5096301;28;20456;-70
2022/12/13 07:39:50;;;;;;;9.67;5.90;;;;;;;-143.84;67.92;45256.63;5091287;28;20440;-70
2022/12/13 07:42:18;;;;;;;10.17;6.67;;;;;;;-143.84;68.39;45277.56;5091250;28;20879;-70
2022/12/13 07:44:45;;;;;;;9.93;7.73;;;;;;;-143.84;69.44;45296.63;5098538;28;20467;-70
2022/12/13 07:47:12;;;;;;;9.23;6.77;;;;;;;-143.84;69.86;45275.66;5111369;28;20478;-70
2022/12/13 07:49:40;;;;;;;10.87;7.30;;;;;;;-143.84;69.70;45279.47;5111477;28;20510;-70
2022/12/13 07:52:12;;;;;;;10.10;6.80;;;;;;;-143.84;69.79;45294.72;5111232;28;20431;-70
2022/12/13 07:54:39;;;;;;;8.60;6.53;;;;;;;-143.84;69.67;45266.16;5110890;28;20504;-70
2022/12/13 07:57:06;;;;;;;8.30;6.20;;;;;;;-143.84;68.95;45281.38;5111563;28;20438;-70
2022/12/13 07:59:33;;;;;;;10.60;7.47;;;;;;;-143.84;69.68;45296.63;5111486;28;20949;-70
2022/12/13 08:02:00;;;;;;;8.53;7.10;;;;;;;-143.84;69.38;45258.53;5111078;28;20493;-70
2022/12/13 08:04:28;;;;;;;9.10;6.50;;;;;;;-143.84;69.91;45292.81;5110985;28;20450;-72
2022/12/13 08:06:55;;;;;;;11.47;8.10;;;;;;;-143.84;70.08;45304.25;5110973;28;20478;-72
2022/12/13 08:09:24;;;;;;;10.47;7.23;;;;;;;-143.84;69.64;45277.56;5111082;28;21110;-72
2022/12/13 08:11:51;;;;;;;12.00;8.70;;;;;;;-143.84;70.09;45269.97;5111201;28;20450;-73
2022/12/13 08:14:18;;;;;;;8.87;7.40;;;;;;;-143.84;70.08;45249.00;5110862;28;20478;-72
2022/12/13 08:16:46;;;;;;;9.30;7.27;;;;;;;-143.84;68.51;45289.00;5110862;28;20496;-71
2022/12/13 08:19:13;;;;;;;12.50;7.67;;;;;;;-143.84;67.67;45285.19;5110994;28;20432;-71
2022/12/13 08:21:41;;;;;;;10.53;6.90;;;;;;;-143.84;68.18;45308.03;5110825;28;20449;-71
2022/12/13 08:24:09;;;;;;;9.30;6.90;;;;;;;-143.84;65.76;45273.78;5110752;28;20440;-71
2022/12/13 08:26:37;;;;;;;10.57;7.93;;;;;;;-143.84;65.86;45250.91;5110554;28;21199;-71
2022/12/13 08:29:05;;;;;;;9.57;6.27;;;;;;;-143.84;63.71;45239.50;5110845;28;20445;-71
2022/12/13 08:31:32;;;;;;;9.33;6.30;;;;;;;-143.84;63.37;45268.06;5110894;28;20435;-71
2022/12/13 08:33:59;;;;;;;10.30;6.87;;;;;;;-143.84;62.90;45252.81;5092456;28;20440;-71
2022/12/13 08:36:27;;;;;;;8.90;6.73;;;;;;;-143.84;61.14;45269.97;5110318;28;20441;-71
2022/12/13 08:38:56;;;;;;;10.53;6.60;;;;;;;-143.84;60.24;45264.25;5110685;28;20455;-71
2022/12/13 08:41:23;;;;;;;9.10;5.80;;;;;;;-143.84;59.81;45281.38;5110274;28;20446;-71
2022/12/13 08:43:52;;;;;;;7.50;5.87;;;;;;;-143.84;60.58;45285.19;5110161;28;20456;-70
2022/12/13 08:46:19;;;;;;;8.50;7.00;;;;;;;-143.84;61.59;45262.34;5069603;28;20487;-71
2022/12/13 08:48:46;;;;;;;11.80;7.83;;;;;;;-143.84;62.09;45260.44;5069680;28;20965;-71
2022/12/13 08:51:16;;;;;;;9.00;6.03;;;;;;;-143.84;60.98;45269.97;5069790;28;20514;-72
2022/12/13 08:53:44;;;;;;;11.40;6.97;;;;;;;-143.84;60.87;45243.31;5069886;28;20855;-72
2022/12/13 08:56:12;;;;;;;8.10;6.37;;;;;;;-143.84;60.18;45256.63;5069412;28;20504;-72
2022/12/13 08:58:39;;;;;;;12.17;7.63;;;;;;;-143.84;59.38;45283.28;5069117;28;20932;-72
2022/12/13 09:01:09;;;;;;;7.17;5.40;;;;;;;-143.84;59.96;45268.06;5069455;28;20445;-72
2022/12/13 09:03:37;;;;;;;8.83;6.50;;;;;;;-143.84;59.24;45254.72;5069494;28;20804;-72
2022/12/13 09:06:09;;;;;;;8.70;6.53;;;;;;;-143.84;58.45;45273.78;5069497;28;20441;-72
2022/12/13 09:08:36;;;;;;;7.80;6.60;;;;;;;-143.84;60.21;45269.97;5069192;28;20480;-70
2022/12/13 09:11:05;;;;;;;11.00;7.47;;;;;;;-143.84;59.30;45296.63;5069090;28;20441;-70
2022/12/13 09:13:36;;;;;;;10.30;6.40;;;;;;;-143.84;59.01;45235.69;5068221;28;20958;-70
2022/12/13 09:16:11;;;;;;;14.33;7.33;;;;;;;-143.84;59.83;45275.66;5068358;28;20973;-70
2022/12/13 09:18:38;;;;;;;11.00;7.70;;;;;;;-143.84;58.81;45266.16;5068121;28;20479;-70
2022/12/13 09:21:09;;;;;;;9.77;6.77;;;;;;;-143.84;59.66;45249.00;5068538;28;20851;-70
2022/12/13 09:23:37;;;;;;;10.60;7.80;;;;;;;-143.84;58.40;45256.63;5068541;28;20437;-70
2022/12/13 09:26:04;;;;;;;6.77;6.07;;;;;;;-143.84;58.11;45254.72;5068794;28;20481;-70
2022/12/13 09:28:32;;;;;;;8.90;7.40;;;;;;;-143.84;57.48;45287.09;5067883;28;20895;-70
2022/12/13 09:30:59;;;;;;;9.97;6.27;;;;;;;-143.84;57.68;45243.31;5068837;28;20440;-70
2022/12/13 09:33:27;;;;;;;9.33;7.33;;;;;;;-143.84;57.85;45266.16;5068662;28;20437;-70
2022/12/13 09:35:54;;;;;;;9.03;6.63;;;;;;;-143.84;58.13;45231.88;5068454;28;20453;-70
2022/12/13 09:38:21;;;;;;;13.77;6.37;;;;;;;-143.84;56.91;45260.44;5068819;28;20768;-70
2022/12/13 09:40:51;;;;;;;11.30;7.27;;;;;;;-143.84;56.37;45241.41;5068705;28;20443;-70
2022/12/13 09:43:24;;;;;;;6.97;6.10;;;;;;;-143.84;56.35;45250.91;5068492;28;20533;-70
2022/12/13 09:45:52;;;;;;;8.87;6.07;;;;;;;-143.84;55.71;45268.06;5101601;28;20484;-70
2022/12/13 09:48:22;;;;;;;11.53;6.50;;;;;;;-143.84;55.80;45264.25;5109105;28;20822;-70
2022/12/13 09:50:51;;;;;;;16.40;8.10;;;;;;;-143.84;56.38;45250.91;5109219;28;20432;-70
2022/12/13 09:53:20;;;;;;;9.60;7.93;;;;;;;-143.84;56.94;45247.09;5109233;28;20449;-70
2022/12/13 09:55:48;;;;;;;8.10;6.70;;;;;;;-143.84;56.44;45239.50;5109213;28;21337;-70
2022/12/13 09:58:20;;;;;;;9.67;7.07;;;;;;;-143.84;54.21;45260.44;5109512;28;20447;-70
2022/12/13 10:00:50;;;;;;;8.87;6.47;;;;;;;-143.84;55.25;45256.63;5109092;28;20517;-70
2022/12/13 10:03:19;;;;;;;9.37;7.67;;;;;;;-143.84;54.95;45235.69;5109005;28;20433;-70
2022/12/13 10:05:58;;;;;;;8.20;6.30;;;;;;;-143.84;56.45;45243.31;5109324;28;20443;-70
2022/12/13 10:08:30;;;;;;;9.63;6.57;;;;;;;-143.84;54.87;45235.69;5109537;28;20516;-70
2022/12/13 10:10:58;;;;;;;7.73;6.77;;;;;;;-143.84;53.02;45239.50;5109253;28;20517;-70
2022/12/13 10:13:31;;;;;;;9.60;6.60;;;;;;;-143.84;52.10;45262.34;5109012;28;20442;-70
2022/12/13 10:16:02;;;;;;;8.43;6.00;;;;;;;-143.84;52.08;45245.19;5109426;28;20446;-72
2022/12/13 10:18:34;;;;;;;5.90;5.40;;;;;;;-143.84;49.85;45266.16;5109085;28;20454;-72
2022/12/13 10:21:07;;;;;;;5.90;5.17;;;;;;;-143.84;50.01;45249.00;5109108;28;20438;-73
2022/12/13 10:23:34;;;;;;;8.43;5.17;;;;;;;-143.84;49.22;45264.25;5108830;28;20443;-72
2022/12/13 10:26:02;;;;;;;8.77;5.33;;;;;;;-143.84;48.85;45254.72;5108517;28;20948;-73
2022/12/13 10:28:32;;;;;;;6.57;5.37;;;;;;;-143.84;48.51;45239.50;5108662;28;20474;-72
2022/12/13 10:30:59;;;;;;;5.47;4.97;;;;;;;-143.84;46.30;45233.78;5108630;28;20477;-72
2022/12/13 10:33:30;;;;;;;7.07;5.70;;;;;;;-143.84;46.58;45222.34;5108956;28;20947;-72
2022/12/13 10:36:16;;;;;;;8.90;5.83;;;;;;;-143.84;46.21;45249.00;5108686;28;20473;-72
2022/12/13 10:38:45;;;;;;;7.90;5.47;;;;;;;-143.84;46.76;45266.16;5108835;28;20832;-72
2022/12/13 10:41:34;;;;;;;7.40;5.90;;;;;;;-143.84;46.06;45250.91;5109823;28;20823;-72
2022/12/13 10:44:24;;;;;;;8.27;4.93;;;;;;;-143.84;46.73;45233.78;5112961;28;20439;-71
2022/12/13 10:47:04;;;;;;;6.50;5.40;;;;;;;-143.84;46.72;45207.13;5112964;28;20560;-72
2022/12/13 10:49:41;;;;;;;7.53;5.70;;;;;;;-143.84;46.93;45249.00;5112433;28;20473;-72
2022/12/13 10:52:26;;;;;;;7.83;5.67;;;;;;;-143.84;46.95;45235.69;5113275;28;20427;-72
2022/12/13 10:54:54;;;;;;;7.03;5.77;;;;;;;-143.84;46.76;45228.06;5112390;28;20439;-72
2022/12/13 10:57:22;;;;;;;8.10;5.43;;;;;;;-143.84;45.61;45239.50;5112720;28;20450;-72
2022/12/13 10:59:50;;;;;;;5.70;5.00;;;;;;;-143.84;45.21;45256.63;5112410;28;20464;-72
2022/12/13 11:02:33;;;;;;;6.87;6.17;;;;;;;-143.84;44.53;45235.69;5112596;28;20508;-72
2022/12/13 11:05:21;;;;;;;9.80;7.40;;;;;;;-143.84;44.05;45250.91;5112307;28;20790;-72
2022/12/13 11:07:50;;;;;;;6.83;5.73;;;;;;;-143.84;44.16;45231.88;5112239;28;20539;-72
2022/12/13 11:10:23;;;;;;;10.60;5.77;;;;;;;-143.84;44.04;45250.91;5111636;28;20454;-72
2022/12/13 11:12:52;;;;;;;10.33;7.03;;;;;;;-143.84;44.18;45231.88;5112093;28;20451;-73
2022/12/13 11:15:23;;;;;;;5.50;4.93;;;;;;;-143.84;44.29;45220.44;5111947;28;20454;-72
2022/12/13 11:17:53;;;;;;;10.23;6.70;;;;;;;-143.84;43.74;45231.88;5112292;28;20447;-72
2022/12/13 11:20:22;;;;;;;9.00;7.33;;;;;;;-143.84;43.70;45222.34;5111889;28;20442;-72
2022/12/13 11:23:00;;;;;;;53.23;28.37;;;;;;;-143.84;43.74;45210.94;5111785;28;20952;-72
2022/12/13 11:25:34;;;;;;;7.83;6.60;;;;;;;-143.84;43.67;45258.53;5111511;28;20480;-72
2022/12/13 11:28:17;;;;;;;5.53;5.03;;;;;;;-143.84;43.07;45220.44;5111916;28;20482;-72
2022/12/13 11:30:51;;;;;;;7.83;6.37;;;;;;;-143.84;42.82;45207.13;5111243;28;20454;-73
2022/12/13 11:33:27;;;;;;;6.70;4.60;;;;;;;-143.84;42.83;45228.06;5111099;28;20442;-73
2022/12/13 11:36:06;;;;;;;7.70;6.40;;;;;;;-143.84;43.50;45224.25;5112427;28;20933;-72